CheckWX is a tool to help pilots better visualize weather data.  It is not intended as a substitute for an official pre-flight weather briefing.

06:45:38 UTC

KUUU METAR
Newport State Airport
Newport, Rhode Island, USA
Current

53 mins ago

KUUU 280553Z AUTO 20006KT 1/4SM FG VV002 17/16 A3023 RMK AO2 SLP236 T01670156 10172 20161 58002
Observed
May-28 @ 05:53 UTC
Wind
  • 200° at 6 KTS
Visibility
Flight Rules
LIFR
Conditions
Fog
Cloud Levels
  • Vertical visibility
Temperature
17°C / 63°F
Dewpoint
16°C / 61°F
Humidity
94%
Altimeter
30.23" Hg
Pressure
1023.72 hPa
Previous

1 hour ago

KUUU 280532Z AUTO 20004KT 1/2SM FG VV002 16/16 A3024 RMK AO2 T01610156
Observed
May-28 @ 05:32 UTC
Wind
  • 200° at 4 KTS
Visibility
Flight Rules
LIFR
Conditions
Fog
Cloud Levels
  • Vertical visibility
Temperature
16°C / 61°F
Dewpoint
16°C / 61°F
Humidity
100%
Altimeter
30.24" Hg
Pressure
1024.02 hPa
Previous

2 hours ago

KUUU 280502Z AUTO 00000KT 1 1/4SM BR OVC002 16/16 A3024 RMK AO2 T01610156
Observed
May-28 @ 05:02 UTC
Visibility
Flight Rules
LIFR
Conditions
Mist
Cloud Levels
  • Overcast at 200' AGL
Temperature
16°C / 61°F
Dewpoint
16°C / 61°F
Humidity
100%
Altimeter
30.24" Hg
Pressure
1024.02 hPa